createdAt,value
2017-08-15T00:01:53.893Z,20.50
2017-08-15T00:04:20.226Z,20.40
2017-08-15T00:06:46.528Z,20.40
2017-08-15T00:09:12.857Z,20.40
2017-08-15T00:11:39.201Z,20.40
2017-08-15T00:14:06.239Z,20.30
2017-08-15T00:16:33.322Z,20.30
2017-08-15T00:18:59.618Z,20.30
2017-08-15T00:21:26.671Z,20.30
2017-08-15T00:23:53.788Z,20.30
2017-08-15T00:26:20.088Z,20.30
2017-08-15T00:28:46.675Z,20.30
2017-08-15T00:31:13.218Z,20.30
2017-08-15T00:33:39.537Z,20.30
2017-08-15T00:36:05.920Z,20.40
2017-08-15T00:38:32.231Z,20.40
2017-08-15T00:40:58.544Z,20.40
2017-08-15T00:43:24.911Z,20.40
2017-08-15T00:45:51.271Z,20.40
2017-08-15T00:48:17.602Z,20.40
2017-08-15T00:50:43.986Z,20.40
2017-08-15T00:53:10.358Z,20.40
2017-08-15T00:55:36.748Z,20.40
2017-08-15T00:58:03.073Z,20.40
2017-08-15T01:00:30.158Z,20.30
2017-08-15T01:02:56.538Z,20.30
2017-08-15T01:05:23.607Z,20.30
2017-08-15T01:07:49.962Z,20.30
2017-08-15T01:10:16.309Z,20.30
2017-08-15T01:12:42.631Z,20.30
2017-08-15T01:15:08.962Z,20.30
2017-08-15T01:17:35.256Z,20.30
2017-08-15T01:20:02.375Z,20.20
2017-08-15T01:22:28.680Z,20.20
2017-08-15T01:24:55.017Z,20.20
2017-08-15T01:27:21.377Z,20.20
2017-08-15T01:29:47.673Z,20.10
2017-08-15T01:32:13.979Z,20.10
2017-08-15T01:34:40.298Z,20.10
2017-08-15T01:37:06.606Z,20.10
2017-08-15T01:39:33.715Z,20.10
2017-08-15T01:42:00.020Z,20.00
2017-08-15T01:44:26.320Z,20.10
2017-08-15T01:46:53.410Z,20.00
2017-08-15T01:49:19.734Z,20.00
2017-08-15T01:51:46.042Z,20.00
2017-08-15T01:54:12.427Z,19.90
2017-08-15T01:56:38.786Z,19.90
2017-08-15T01:59:05.828Z,19.90
2017-08-15T02:01:32.122Z,19.80
2017-08-15T02:03:58.477Z,19.90
2017-08-15T02:06:25.279Z,19.90
2017-08-15T02:08:51.579Z,19.90
2017-08-15T02:11:18.651Z,19.80
2017-08-15T02:13:44.948Z,19.80
2017-08-15T02:16:12.040Z,19.80
2017-08-15T02:18:38.344Z,19.70
2017-08-15T02:21:04.648Z,19.70
2017-08-15T02:23:31.006Z,19.80
2017-08-15T02:25:57.323Z,19.80
2017-08-15T02:28:24.415Z,19.80
2017-08-15T02:30:50.762Z,19.80
2017-08-15T02:33:17.051Z,19.80
2017-08-15T02:35:43.344Z,19.80
2017-08-15T02:38:09.689Z,19.80
2017-08-15T02:40:36.746Z,19.80
2017-08-15T02:43:03.781Z,19.80
2017-08-15T02:45:30.135Z,19.80
2017-08-15T02:47:56.438Z,19.80
2017-08-15T02:50:22.792Z,19.80
2017-08-15T02:52:49.091Z,19.80
2017-08-15T02:55:15.403Z,19.80
2017-08-15T02:57:41.984Z,19.80
2017-08-15T03:00:08.290Z,19.80
2017-08-15T03:02:34.587Z,19.80
2017-08-15T03:05:00.932Z,19.80
2017-08-15T03:07:27.259Z,19.80
2017-08-15T03:09:53.631Z,19.80
2017-08-15T03:12:20.731Z,19.80
2017-08-15T03:14:47.024Z,19.80
2017-08-15T03:17:13.360Z,19.80
2017-08-15T03:19:39.696Z,19.90
2017-08-15T03:22:06.022Z,19.90
2017-08-15T03:24:32.329Z,19.90
2017-08-15T03:26:59.365Z,20.00
2017-08-15T03:29:25.801Z,19.90
2017-08-15T03:31:52.868Z,20.00
2017-08-15T03:34:19.184Z,20.00
2017-08-15T03:36:46.423Z,20.00
2017-08-15T03:39:14.515Z,20.00
2017-08-15T03:41:40.996Z,20.00
2017-08-15T03:44:07.386Z,20.00
2017-08-15T03:46:34.467Z,20.00
2017-08-15T03:49:00.812Z,20.00
2017-08-15T03:51:27.139Z,20.00
2017-08-15T03:53:53.486Z,20.00
2017-08-15T03:56:19.814Z,20.00
2017-08-15T03:58:46.141Z,20.10
2017-08-15T04:01:12.473Z,20.10
2017-08-15T04:03:38.835Z,20.10
2017-08-15T04:06:06.100Z,20.10
2017-08-15T04:08:33.204Z,20.10
2017-08-15T04:10:59.558Z,20.10
2017-08-15T04:13:26.213Z,20.20
2017-08-15T04:15:53.320Z,20.20
2017-08-15T04:18:20.049Z,20.20
2017-08-15T04:20:46.467Z,20.20
2017-08-15T04:23:12.767Z,20.20
2017-08-15T04:25:39.851Z,20.30
2017-08-15T04:28:06.151Z,20.30
2017-08-15T04:30:33.288Z,20.30
2017-08-15T04:32:59.618Z,20.30
2017-08-15T04:35:25.957Z,20.30
2017-08-15T04:37:53.044Z,20.30
2017-08-15T04:40:19.399Z,20.30
2017-08-15T04:42:45.746Z,20.30
2017-08-15T04:45:12.158Z,20.40
2017-08-15T04:47:38.526Z,20.40
2017-08-15T04:50:05.573Z,20.40
2017-08-15T04:52:32.683Z,20.40
2017-08-15T04:54:59.034Z,20.40
2017-08-15T04:57:25.350Z,20.40
2017-08-15T04:59:51.667Z,20.50
2017-08-15T05:02:18.142Z,20.50
2017-08-15T05:04:44.464Z,20.50
2017-08-15T05:07:10.804Z,20.50
2017-08-15T05:09:37.420Z,20.50
2017-08-15T05:12:03.740Z,20.60
2017-08-15T05:14:30.080Z,20.60
2017-08-15T05:16:56.468Z,20.60
2017-08-15T05:19:22.894Z,20.60
2017-08-15T05:21:49.289Z,20.60
2017-08-15T05:24:15.613Z,20.60
2017-08-15T05:26:41.956Z,20.60
2017-08-15T05:29:08.265Z,20.70
2017-08-15T05:31:34.646Z,20.70
2017-08-15T05:34:01.683Z,20.70
2017-08-15T05:36:28.786Z,20.70
2017-08-15T05:38:55.123Z,20.70
2017-08-15T05:41:21.419Z,20.80
2017-08-15T05:43:47.764Z,20.80
2017-08-15T05:46:14.053Z,20.80
2017-08-15T05:48:41.134Z,20.90
2017-08-15T05:51:07.476Z,20.90
2017-08-15T05:53:33.778Z,20.90
2017-08-15T05:56:00.076Z,21.00
2017-08-15T05:58:26.508Z,21.00
2017-08-15T06:00:52.885Z,21.00
2017-08-15T06:03:19.186Z,21.10
2017-08-15T06:05:46.222Z,21.10
2017-08-15T06:08:12.574Z,21.10
2017-08-15T06:10:39.667Z,21.20
2017-08-15T06:13:05.982Z,21.20
2017-08-15T06:15:32.334Z,21.20
2017-08-15T06:17:58.699Z,21.20
2017-08-15T06:20:25.815Z,21.30
2017-08-15T06:22:52.126Z,21.30
2017-08-15T06:25:18.986Z,21.40
2017-08-15T06:27:45.334Z,21.40
2017-08-15T06:30:11.642Z,21.40
2017-08-15T06:32:37.958Z,21.40
2017-08-15T06:35:04.353Z,21.50
2017-08-15T06:37:31.406Z,21.50
2017-08-15T06:39:58.503Z,21.50
2017-08-15T06:42:24.896Z,21.50
2017-08-15T06:44:51.260Z,21.60
2017-08-15T06:47:17.570Z,21.60
2017-08-15T06:49:43.909Z,21.70
2017-08-15T06:52:10.255Z,21.70
2017-08-15T06:54:36.559Z,21.80
2017-08-15T06:57:02.939Z,21.90
2017-08-15T06:59:29.241Z,21.90
2017-08-15T07:01:55.564Z,21.90
2017-08-15T07:04:21.903Z,22.00
2017-08-15T07:06:48.212Z,22.10
2017-08-15T07:09:14.599Z,22.10
2017-08-15T07:11:40.927Z,22.20
2017-08-15T07:14:07.268Z,22.30
2017-08-15T07:16:33.592Z,22.40
2017-08-15T07:18:59.933Z,22.40
2017-08-15T07:21:26.946Z,22.50
2017-08-15T07:23:53.249Z,22.60
2017-08-15T07:26:19.609Z,22.70
2017-08-15T07:28:45.914Z,22.70
2017-08-15T07:31:12.299Z,22.80
2017-08-15T07:33:38.622Z,22.90
2017-08-15T07:36:04.932Z,23.00
2017-08-15T07:38:31.269Z,23.00
2017-08-15T07:40:57.568Z,23.10
2017-08-15T07:43:23.908Z,23.20
2017-08-15T07:45:50.255Z,23.30
2017-08-15T07:48:16.595Z,23.40
2017-08-15T07:50:42.901Z,23.40
2017-08-15T07:53:09.239Z,23.50
2017-08-15T07:55:35.588Z,23.60
2017-08-15T07:58:02.151Z,23.70
2017-08-15T08:00:28.451Z,23.70
2017-08-15T08:02:54.767Z,23.80
2017-08-15T08:05:21.118Z,23.90
2017-08-15T08:07:47.410Z,23.90
2017-08-15T08:10:13.713Z,24.00
2017-08-15T08:12:40.794Z,24.10
2017-08-15T08:15:07.130Z,24.10
2017-08-15T08:17:33.464Z,24.20
2017-08-15T08:19:59.768Z,24.30
2017-08-15T08:22:26.850Z,24.40
2017-08-15T08:24:53.181Z,24.40
2017-08-15T08:27:19.503Z,24.50
2017-08-15T08:29:45.851Z,24.60
2017-08-15T08:32:12.162Z,24.60
2017-08-15T08:34:38.459Z,24.80
2017-08-15T08:37:05.566Z,24.90
2017-08-15T08:39:31.879Z,24.90
2017-08-15T08:41:58.183Z,25.00
2017-08-15T08:44:24.540Z,25.00
2017-08-15T08:46:50.855Z,25.10
2017-08-15T08:49:17.200Z,25.20
2017-08-15T08:51:43.502Z,25.30
2017-08-15T08:54:09.840Z,25.40
2017-08-15T08:56:36.811Z,25.40
2017-08-15T08:59:03.114Z,25.50
2017-08-15T09:01:29.490Z,25.50
2017-08-15T09:03:55.869Z,25.60
2017-08-15T09:06:22.943Z,25.70
2017-08-15T09:08:49.322Z,25.60
2017-08-15T09:11:15.924Z,25.70
2017-08-15T09:13:42.225Z,25.80
2017-08-15T09:16:08.616Z,25.80
2017-08-15T09:18:34.977Z,25.90
2017-08-15T09:21:02.075Z,26.00
2017-08-15T09:23:28.424Z,26.00
2017-08-15T09:25:54.780Z,26.00
2017-08-15T09:28:21.855Z,26.20
2017-08-15T09:30:48.184Z,26.20
2017-08-15T09:33:14.567Z,26.30
2017-08-15T09:35:40.914Z,26.40
2017-08-15T09:38:08.018Z,26.50
2017-08-15T09:40:34.396Z,26.50
2017-08-15T09:43:01.506Z,26.60
2017-08-15T09:45:27.804Z,26.60
2017-08-15T09:47:54.288Z,26.70
2017-08-15T09:50:20.594Z,26.70
2017-08-15T09:52:46.897Z,26.80
2017-08-15T09:55:13.256Z,26.80
2017-08-15T09:57:39.571Z,26.80
2017-08-15T10:00:05.866Z,26.80
2017-08-15T10:02:32.969Z,26.90
2017-08-15T10:04:59.282Z,26.90
2017-08-15T10:07:25.602Z,26.90
2017-08-15T10:09:51.952Z,26.90
2017-08-15T10:12:18.295Z,27.00
2017-08-15T10:14:44.771Z,27.00
2017-08-15T10:17:11.885Z,27.00
2017-08-15T10:19:38.234Z,27.00
2017-08-15T10:22:04.855Z,27.00
2017-08-15T10:24:31.187Z,27.10
2017-08-15T10:26:57.588Z,27.10
2017-08-15T10:29:23.884Z,27.20
2017-08-15T10:31:50.987Z,27.30
2017-08-15T10:34:17.308Z,27.30
2017-08-15T10:36:43.628Z,27.30
2017-08-15T10:39:09.985Z,27.30
2017-08-15T10:41:36.288Z,27.40
2017-08-15T10:44:02.595Z,27.50
2017-08-15T10:46:29.683Z,27.60
2017-08-15T10:48:56.241Z,27.60
2017-08-15T10:51:22.561Z,27.60
2017-08-15T10:53:48.922Z,27.70
2017-08-15T10:56:15.215Z,27.80
2017-08-15T10:58:41.551Z,28.00
2017-08-15T11:01:07.910Z,28.00
2017-08-15T11:03:34.239Z,28.10
2017-08-15T11:06:01.368Z,28.10
2017-08-15T11:08:27.678Z,28.10
2017-08-15T11:10:53.981Z,28.10
2017-08-15T11:13:20.331Z,28.10
2017-08-15T11:15:46.884Z,28.10
2017-08-15T11:18:13.295Z,28.20
2017-08-15T11:20:39.594Z,28.20
2017-08-15T11:23:06.639Z,28.30
2017-08-15T11:25:33.716Z,28.30
2017-08-15T11:28:00.050Z,28.40
2017-08-15T11:30:26.345Z,28.40
2017-08-15T11:32:53.475Z,28.50
2017-08-15T11:35:19.772Z,28.50
2017-08-15T11:37:46.129Z,28.50
2017-08-15T11:40:12.646Z,28.60
2017-08-15T11:42:39.031Z,28.70
2017-08-15T11:45:06.075Z,28.80
2017-08-15T11:47:33.165Z,28.80
2017-08-15T11:49:59.758Z,28.80
2017-08-15T11:52:26.857Z,28.90
2017-08-15T11:54:53.199Z,28.90
2017-08-15T11:57:19.492Z,28.90
2017-08-15T11:59:45.936Z,28.90
2017-08-15T12:02:12.235Z,28.90
2017-08-15T12:04:39.541Z,28.80
2017-08-15T12:07:05.915Z,28.80
2017-08-15T12:09:33.012Z,28.60
2017-08-15T12:11:59.303Z,28.60
2017-08-15T12:14:26.371Z,28.40
2017-08-15T12:16:52.672Z,28.40
2017-08-15T12:19:19.247Z,28.30
2017-08-15T12:21:45.546Z,28.10
2017-08-15T12:24:12.584Z,28.00
2017-08-15T12:26:39.697Z,27.90
2017-08-15T12:29:06.080Z,27.90
2017-08-15T12:31:33.171Z,27.70
2017-08-15T12:33:59.584Z,27.70
2017-08-15T12:36:25.906Z,27.60
2017-08-15T12:38:52.239Z,27.50
2017-08-15T12:41:18.587Z,27.30
2017-08-15T12:43:45.131Z,26.90
2017-08-15T12:46:11.735Z,26.30
2017-08-15T12:48:38.062Z,25.90
2017-08-15T12:51:04.404Z,25.50
2017-08-15T12:53:30.701Z,25.10
2017-08-15T12:55:57.792Z,24.80
2017-08-15T12:58:24.083Z,24.70
2017-08-15T13:00:51.177Z,24.70
2017-08-15T13:03:17.515Z,24.70
2017-08-15T13:05:43.815Z,24.70
2017-08-15T13:08:10.201Z,24.80
2017-08-15T13:10:36.494Z,24.90
2017-08-15T13:13:02.955Z,25.00
2017-08-15T13:15:29.271Z,25.10
2017-08-15T13:17:55.627Z,25.30
2017-08-15T13:20:21.941Z,25.40
2017-08-15T13:22:48.254Z,25.50
2017-08-15T13:25:14.575Z,25.60
2017-08-15T13:27:40.954Z,25.70
2017-08-15T13:30:07.284Z,25.80
2017-08-15T13:32:33.641Z,25.90
2017-08-15T13:35:00.717Z,26.10
2017-08-15T13:37:27.066Z,26.10
2017-08-15T13:39:53.388Z,26.20
2017-08-15T13:42:19.738Z,26.30
2017-08-15T13:44:46.045Z,26.30
2017-08-15T13:47:12.412Z,26.40
2017-08-15T13:49:38.773Z,26.40
2017-08-15T13:52:05.858Z,26.50
2017-08-15T13:54:32.187Z,26.50
2017-08-15T13:56:58.525Z,26.50
2017-08-15T13:59:24.877Z,26.60
2017-08-15T14:01:51.215Z,26.70
2017-08-15T14:04:17.564Z,26.70
2017-08-15T14:06:43.895Z,26.70
2017-08-15T14:09:10.612Z,26.70
2017-08-15T14:11:36.941Z,26.70
2017-08-15T14:14:03.306Z,26.70
2017-08-15T14:16:30.358Z,26.60
2017-08-15T14:18:57.453Z,26.60
2017-08-15T14:21:23.752Z,26.60
2017-08-15T14:23:50.103Z,26.60
2017-08-15T14:26:16.427Z,26.60
2017-08-15T14:28:42.749Z,26.60
2017-08-15T14:31:09.055Z,26.60
2017-08-15T14:33:36.114Z,26.70
2017-08-15T14:36:02.469Z,26.60
2017-08-15T14:38:28.804Z,26.60
2017-08-15T14:40:55.150Z,26.70
2017-08-15T14:43:21.481Z,26.70
2017-08-15T14:45:47.834Z,26.70
2017-08-15T14:48:14.165Z,26.70
2017-08-15T14:50:40.544Z,26.70
2017-08-15T14:53:06.870Z,26.70
2017-08-15T14:55:33.246Z,26.70
2017-08-15T14:58:00.114Z,26.70
2017-08-15T15:00:26.467Z,26.70
2017-08-15T15:02:53.550Z,26.80
2017-08-15T15:05:19.908Z,26.70
2017-08-15T15:07:46.243Z,26.80
2017-08-15T15:10:12.604Z,26.70
2017-08-15T15:12:39.670Z,26.80
2017-08-15T15:15:06.031Z,26.80
2017-08-15T15:17:32.354Z,26.70
2017-08-15T15:19:58.714Z,26.70
2017-08-15T15:22:25.040Z,26.70
2017-08-15T15:24:51.384Z,26.70
2017-08-15T15:27:17.755Z,26.70
2017-08-15T15:29:44.089Z,26.70
2017-08-15T15:32:10.450Z,26.60
2017-08-15T15:34:36.809Z,26.60
2017-08-15T15:37:03.151Z,26.50
2017-08-15T15:39:30.224Z,26.50
2017-08-15T15:41:56.593Z,26.40
2017-08-15T15:44:22.927Z,26.30
2017-08-15T15:46:49.268Z,26.30
2017-08-15T15:49:15.591Z,26.30
2017-08-15T15:51:41.951Z,26.20
2017-08-15T15:54:08.243Z,26.20
2017-08-15T15:56:34.599Z,26.20
2017-08-15T15:59:00.956Z,26.10
2017-08-15T16:01:28.005Z,26.00
2017-08-15T16:03:55.065Z,25.90
2017-08-15T16:06:21.365Z,25.80
2017-08-15T16:08:47.670Z,25.80
2017-08-15T16:11:13.963Z,25.80
2017-08-15T16:13:40.352Z,25.80
2017-08-15T16:16:06.649Z,25.70
2017-08-15T16:18:32.960Z,25.70
2017-08-15T16:20:59.266Z,25.60
2017-08-15T16:23:26.333Z,25.50
2017-08-15T16:25:52.630Z,25.50
2017-08-15T16:28:18.999Z,25.50
2017-08-15T16:30:45.466Z,25.50
2017-08-15T16:33:11.804Z,25.50
2017-08-15T16:35:38.100Z,25.50
2017-08-15T16:38:04.438Z,25.40
2017-08-15T16:40:31.080Z,25.40
2017-08-15T16:42:57.465Z,25.40
2017-08-15T16:45:24.557Z,25.30
2017-08-15T16:47:50.929Z,25.30
2017-08-15T16:50:17.283Z,25.30
2017-08-15T16:52:44.357Z,25.10
2017-08-15T16:55:10.759Z,25.10
2017-08-15T16:57:37.855Z,25.00
2017-08-15T17:00:04.174Z,25.00
2017-08-15T17:02:30.678Z,24.90
2017-08-15T17:04:57.758Z,24.80
2017-08-15T17:07:24.091Z,24.80
2017-08-15T17:09:50.423Z,24.70
2017-08-15T17:12:16.761Z,24.70
2017-08-15T17:14:43.096Z,24.60
2017-08-15T17:17:09.414Z,24.60
2017-08-15T17:19:35.733Z,24.60
2017-08-15T17:22:02.044Z,24.60
2017-08-15T17:24:29.114Z,24.60
2017-08-15T17:26:55.504Z,24.60
2017-08-15T17:29:21.994Z,24.60
2017-08-15T17:31:48.327Z,24.60
2017-08-15T17:34:14.681Z,24.60
2017-08-15T17:36:41.715Z,24.60
2017-08-15T17:39:09.255Z,24.60
2017-08-15T17:41:36.935Z,24.50
2017-08-15T17:44:03.667Z,24.50
2017-08-15T17:46:30.512Z,24.50
2017-08-15T17:48:57.357Z,24.40
2017-08-15T17:51:24.261Z,24.40
2017-08-15T17:53:50.713Z,24.40
2017-08-15T17:56:17.054Z,24.40
2017-08-15T17:58:43.764Z,24.30
2017-08-15T18:01:10.159Z,24.30
2017-08-15T18:03:36.515Z,24.30
2017-08-15T18:06:03.580Z,24.30
2017-08-15T18:08:30.047Z,24.20
2017-08-15T18:10:56.356Z,24.20
2017-08-15T18:13:22.659Z,24.20
2017-08-15T18:15:49.756Z,24.20
2017-08-15T18:18:16.089Z,24.10
2017-08-15T18:20:42.671Z,24.10
2017-08-15T18:23:09.772Z,24.00
2017-08-15T18:25:36.084Z,24.00
2017-08-15T18:28:02.423Z,24.00
2017-08-15T18:30:28.731Z,23.90
2017-08-15T18:32:55.075Z,23.90
2017-08-15T18:35:21.383Z,23.90
2017-08-15T18:37:48.467Z,23.80
2017-08-15T18:40:14.779Z,23.80
2017-08-15T18:42:41.080Z,23.80
2017-08-15T18:45:08.202Z,23.80
2017-08-15T18:47:34.533Z,23.80
2017-08-15T18:50:00.840Z,23.70
2017-08-15T18:52:27.237Z,23.70
2017-08-15T18:54:54.282Z,23.60
2017-08-15T18:57:22.425Z,23.60
2017-08-15T18:59:49.067Z,23.60
2017-08-15T19:02:15.388Z,23.60
2017-08-15T19:04:41.732Z,23.50
2017-08-15T19:07:08.338Z,23.50
2017-08-15T19:09:35.076Z,23.50
2017-08-15T19:12:01.471Z,23.40
2017-08-15T19:14:28.508Z,23.40
2017-08-15T19:16:55.708Z,23.40
2017-08-15T19:19:22.083Z,23.40
2017-08-15T19:21:48.419Z,23.40
2017-08-15T19:24:15.562Z,23.30
2017-08-15T19:26:41.862Z,23.30
2017-08-15T19:29:08.200Z,23.30
2017-08-15T19:31:34.548Z,23.20
2017-08-15T19:34:00.888Z,23.20
2017-08-15T19:36:27.194Z,23.20
2017-08-15T19:38:53.857Z,23.20
2017-08-15T19:41:21.592Z,23.10
2017-08-15T19:43:47.935Z,23.10
2017-08-15T19:46:14.229Z,23.20
2017-08-15T19:48:40.592Z,23.10
2017-08-15T19:51:06.984Z,23.10
2017-08-15T19:53:33.329Z,23.10
2017-08-15T19:55:59.783Z,23.10
2017-08-15T19:58:26.087Z,23.10
2017-08-15T20:00:52.438Z,23.10
2017-08-15T20:03:18.787Z,23.10
2017-08-15T20:05:45.132Z,23.10
2017-08-15T20:08:11.618Z,23.10
2017-08-15T20:10:37.919Z,23.10
2017-08-15T20:13:04.292Z,23.10
2017-08-15T20:15:30.594Z,23.10
2017-08-15T20:17:56.886Z,23.00
2017-08-15T20:20:23.244Z,23.00
2017-08-15T20:22:49.949Z,23.00
2017-08-15T20:25:16.254Z,23.00
2017-08-15T20:27:43.547Z,23.00
2017-08-15T20:30:10.852Z,23.00
2017-08-15T20:32:38.086Z,22.90
2017-08-15T20:35:04.400Z,22.90
2017-08-15T20:37:31.486Z,22.90
2017-08-15T20:39:57.823Z,22.90
2017-08-15T20:42:24.165Z,22.90
2017-08-15T20:44:50.459Z,22.90
2017-08-15T20:47:17.020Z,22.90
2017-08-15T20:49:43.409Z,22.90
2017-08-15T20:52:09.712Z,22.90
2017-08-15T20:54:36.187Z,22.90
2017-08-15T20:57:02.485Z,22.90
2017-08-15T20:59:29.585Z,22.80
2017-08-15T21:01:55.946Z,22.80
2017-08-15T21:04:22.359Z,22.80
2017-08-15T21:06:48.732Z,22.80
2017-08-15T21:09:16.034Z,22.70
2017-08-15T21:11:42.341Z,22.70
2017-08-15T21:14:08.682Z,22.70
2017-08-15T21:16:34.999Z,22.70
2017-08-15T21:19:01.351Z,22.70
2017-08-15T21:21:27.674Z,22.60
2017-08-15T21:23:54.036Z,22.60
2017-08-15T21:26:20.426Z,22.60
2017-08-15T21:28:46.800Z,22.50
2017-08-15T21:31:13.117Z,22.50
2017-08-15T21:33:39.507Z,22.50
2017-08-15T21:36:06.556Z,22.50
2017-08-15T21:38:33.603Z,22.50
2017-08-15T21:41:00.700Z,22.40
2017-08-15T21:43:27.039Z,22.40
2017-08-15T21:45:53.349Z,22.40
2017-08-15T21:48:19.698Z,22.40
2017-08-15T21:50:46.143Z,22.40
2017-08-15T21:53:12.461Z,22.40
2017-08-15T21:55:38.853Z,22.40
2017-08-15T21:58:05.211Z,22.40
2017-08-15T22:00:31.559Z,22.40
2017-08-15T22:02:57.913Z,22.40
2017-08-15T22:05:24.247Z,22.40
2017-08-15T22:07:51.350Z,22.40
2017-08-15T22:10:17.755Z,22.40
2017-08-15T22:12:44.055Z,22.40
2017-08-15T22:15:10.469Z,22.40
2017-08-15T22:17:36.778Z,22.40
2017-08-15T22:20:03.083Z,22.40
2017-08-15T22:22:29.436Z,22.40
2017-08-15T22:24:55.741Z,22.50
2017-08-15T22:27:22.044Z,22.40
2017-08-15T22:29:48.401Z,22.40
2017-08-15T22:32:14.712Z,22.50
2017-08-15T22:34:41.812Z,22.50
2017-08-15T22:37:08.525Z,22.40
2017-08-15T22:39:34.827Z,22.50
2017-08-15T22:42:01.994Z,22.40
2017-08-15T22:44:28.563Z,22.50
2017-08-15T22:46:54.909Z,22.40
2017-08-15T22:49:21.249Z,22.40
2017-08-15T22:51:47.579Z,22.40
2017-08-15T22:54:14.155Z,22.30
2017-08-15T22:56:41.240Z,22.20
2017-08-15T22:59:07.619Z,22.20
2017-08-15T23:01:34.000Z,22.20
2017-08-15T23:04:00.309Z,22.10
2017-08-15T23:08:59.584Z,22.00
2017-08-15T23:11:25.890Z,21.90
2017-08-15T23:13:52.191Z,21.90
2017-08-15T23:16:18.576Z,21.90
2017-08-15T23:18:44.900Z,21.80
2017-08-15T23:21:11.229Z,21.80
2017-08-15T23:23:37.601Z,21.80
2017-08-15T23:26:04.728Z,21.70
2017-08-15T23:28:31.033Z,21.60
2017-08-15T23:30:57.387Z,21.70
2017-08-15T23:33:23.973Z,21.60
2017-08-15T23:35:50.317Z,21.50
2017-08-15T23:38:16.659Z,21.50
2017-08-15T23:40:42.972Z,21.40
2017-08-15T23:43:09.321Z,21.40
2017-08-15T23:45:35.640Z,21.30
2017-08-15T23:48:01.978Z,21.30
2017-08-15T23:50:28.326Z,21.20
2017-08-15T23:52:54.676Z,21.10
2017-08-15T23:55:20.981Z,21.10
2017-08-15T23:57:47.368Z,21.00
